sensor_id;sensor_type;location;lat;lon;timestamp;temperature;humidity
421;DHT22;63667;49.046;8.468;2022-12-07T00:01:41;5.50;99.60
421;DHT22;63667;49.046;8.468;2022-12-07T00:04:12;5.60;99.60
421;DHT22;63667;49.046;8.468;2022-12-07T00:06:41;5.60;99.60
421;DHT22;63667;49.046;8.468;2022-12-07T00:09:13;5.50;99.60
421;DHT22;63667;49.046;8.468;2022-12-07T00:11:41;5.40;99.60
421;DHT22;63667;49.046;8.468;2022-12-07T00:14:13;5.40;99.60
421;DHT22;63667;49.046;8.468;2022-12-07T00:16:40;5.30;99.60
421;DHT22;63667;49.046;8.468;2022-12-07T00:19:10;5.30;99.60
421;DHT22;63667;49.046;8.468;2022-12-07T00:21:38;5.20;99.60
421;DHT22;63667;49.046;8.468;2022-12-07T00:24:07;5.20;99.60
421;DHT22;63667;49.046;8.468;2022-12-07T00:26:37;5.10;99.60
421;DHT22;63667;49.046;8.468;2022-12-07T00:29:21;5.10;99.60
421;DHT22;63667;49.046;8.468;2022-12-07T00:31:48;5.30;99.60
421;DHT22;63667;49.046;8.468;2022-12-07T00:34:18;5.40;99.60
421;DHT22;63667;49.046;8.468;2022-12-07T00:36:46;5.40;99.60
421;DHT22;63667;49.046;8.468;2022-12-07T00:39:13;5.40;99.60
421;DHT22;63667;49.046;8.468;2022-12-07T00:41:41;5.40;99.60
421;DHT22;63667;49.046;8.468;2022-12-07T00:44:08;5.40;99.60
421;DHT22;63667;49.046;8.468;2022-12-07T00:46:36;5.40;99.60
421;DHT22;63667;49.046;8.468;2022-12-07T00:49:05;5.30;99.60
421;DHT22;63667;49.046;8.468;2022-12-07T00:51:31;5.10;99.60
421;DHT22;63667;49.046;8.468;2022-12-07T00:53:59;5.00;99.60
421;DHT22;63667;49.046;8.468;2022-12-07T00:56:27;5.00;99.60
421;DHT22;63667;49.046;8.468;2022-12-07T00:58:56;5.00;99.60
421;DHT22;63667;49.046;8.468;2022-12-07T01:01:24;5.00;99.60
421;DHT22;63667;49.046;8.468;2022-12-07T01:03:52;5.00;99.60
421;DHT22;63667;49.046;8.468;2022-12-07T01:06:22;4.90;99.60
421;DHT22;63667;49.046;8.468;2022-12-07T01:08:50;4.80;99.60
421;DHT22;63667;49.046;8.468;2022-12-07T01:11:20;4.90;99.60
421;DHT22;63667;49.046;8.468;2022-12-07T01:13:50;4.90;99.60
421;DHT22;63667;49.046;8.468;2022-12-07T01:16:18;4.80;99.60
421;DHT22;63667;49.046;8.468;2022-12-07T01:18:50;4.80;99.60
421;DHT22;63667;49.046;8.468;2022-12-07T01:21:25;4.80;99.60
421;DHT22;63667;49.046;8.468;2022-12-07T01:23:52;4.90;99.60
421;DHT22;63667;49.046;8.468;2022-12-07T01:26:21;5.00;99.60
421;DHT22;63667;49.046;8.468;2022-12-07T01:28:49;5.00;99.60
421;DHT22;63667;49.046;8.468;2022-12-07T01:31:19;5.10;99.60
421;DHT22;63667;49.046;8.468;2022-12-07T01:33:53;5.00;99.60
421;DHT22;63667;49.046;8.468;2022-12-07T01:36:20;5.10;99.60
421;DHT22;63667;49.046;8.468;2022-12-07T01:38:50;5.00;99.60
421;DHT22;63667;49.046;8.468;2022-12-07T01:41:20;4.90;99.60
421;DHT22;63667;49.046;8.468;2022-12-07T01:44:11;5.00;99.60
421;DHT22;63667;49.046;8.468;2022-12-07T01:46:39;4.90;99.60
421;DHT22;63667;49.046;8.468;2022-12-07T01:49:10;4.80;99.60
421;DHT22;63667;49.046;8.468;2022-12-07T01:51:40;4.80;99.60
421;DHT22;63667;49.046;8.468;2022-12-07T01:54:12;4.80;99.60
421;DHT22;63667;49.046;8.468;2022-12-07T01:56:45;4.90;99.60
421;DHT22;63667;49.046;8.468;2022-12-07T01:59:14;4.80;99.60
421;DHT22;63667;49.046;8.468;2022-12-07T02:01:42;4.80;99.60
421;DHT22;63667;49.046;8.468;2022-12-07T02:04:11;4.70;99.60
421;DHT22;63667;49.046;8.468;2022-12-07T02:06:41;4.70;99.60
421;DHT22;63667;49.046;8.468;2022-12-07T02:09:09;4.70;99.60
421;DHT22;63667;49.046;8.468;2022-12-07T02:11:37;4.80;99.60
421;DHT22;63667;49.046;8.468;2022-12-07T02:14:05;4.70;99.60
421;DHT22;63667;49.046;8.468;2022-12-07T02:16:57;4.80;99.60
421;DHT22;63667;49.046;8.468;2022-12-07T02:22:34;4.90;99.60
421;DHT22;63667;49.046;8.468;2022-12-07T02:31:20;5.00;99.60
421;DHT22;63667;49.046;8.468;2022-12-07T02:33:57;4.80;99.60
421;DHT22;63667;49.046;8.468;2022-12-07T02:36:33;4.70;99.60
421;DHT22;63667;49.046;8.468;2022-12-07T02:39:07;4.60;99.60
421;DHT22;63667;49.046;8.468;2022-12-07T02:41:44;4.70;99.60
421;DHT22;63667;49.046;8.468;2022-12-07T02:44:15;4.70;99.60
421;DHT22;63667;49.046;8.468;2022-12-07T02:47:05;4.70;99.60
421;DHT22;63667;49.046;8.468;2022-12-07T02:49:33;4.60;99.60
421;DHT22;63667;49.046;8.468;2022-12-07T02:52:03;4.70;99.60
421;DHT22;63667;49.046;8.468;2022-12-07T02:54:30;4.70;99.60
421;DHT22;63667;49.046;8.468;2022-12-07T03:00:00;4.70;99.60
421;DHT22;63667;49.046;8.468;2022-12-07T03:05:58;4.70;99.60
421;DHT22;63667;49.046;8.468;2022-12-07T03:08:37;4.70;99.60
421;DHT22;63667;49.046;8.468;2022-12-07T03:11:38;4.70;99.60
421;DHT22;63667;49.046;8.468;2022-12-07T03:14:30;4.60;99.60
421;DHT22;63667;49.046;8.468;2022-12-07T03:17:10;4.50;99.60
421;DHT22;63667;49.046;8.468;2022-12-07T03:19:40;4.50;99.60
421;DHT22;63667;49.046;8.468;2022-12-07T03:22:11;4.50;99.60
421;DHT22;63667;49.046;8.468;2022-12-07T03:24:55;4.50;99.60
421;DHT22;63667;49.046;8.468;2022-12-07T03:27:27;4.50;99.60
421;DHT22;63667;49.046;8.468;2022-12-07T03:30:24;4.50;99.60
421;DHT22;63667;49.046;8.468;2022-12-07T03:33:12;4.50;99.60
421;DHT22;63667;49.046;8.468;2022-12-07T03:35:45;4.60;99.60
421;DHT22;63667;49.046;8.468;2022-12-07T03:38:23;4.60;99.60
421;DHT22;63667;49.046;8.468;2022-12-07T03:41:09;4.60;99.60
421;DHT22;63667;49.046;8.468;2022-12-07T03:43:50;4.50;99.60
421;DHT22;63667;49.046;8.468;2022-12-07T03:46:42;4.60;99.60
421;DHT22;63667;49.046;8.468;2022-12-07T03:49:42;4.50;99.60
421;DHT22;63667;49.046;8.468;2022-12-07T03:52:17;4.50;99.60
421;DHT22;63667;49.046;8.468;2022-12-07T03:57:25;4.60;99.60
421;DHT22;63667;49.046;8.468;2022-12-07T03:59:55;4.60;99.60
421;DHT22;63667;49.046;8.468;2022-12-07T04:02:24;4.60;99.60
421;DHT22;63667;49.046;8.468;2022-12-07T04:04:55;4.50;99.60
421;DHT22;63667;49.046;8.468;2022-12-07T04:07:22;4.60;99.60
421;DHT22;63667;49.046;8.468;2022-12-07T04:09:49;4.50;99.60
421;DHT22;63667;49.046;8.468;2022-12-07T04:12:17;4.40;99.60
421;DHT22;63667;49.046;8.468;2022-12-07T04:14:44;4.40;99.60
421;DHT22;63667;49.046;8.468;2022-12-07T04:17:12;4.40;99.60
421;DHT22;63667;49.046;8.468;2022-12-07T04:19:39;4.40;99.60
421;DHT22;63667;49.046;8.468;2022-12-07T04:22:07;4.60;99.60
421;DHT22;63667;49.046;8.468;2022-12-07T04:24:34;4.50;99.60
421;DHT22;63667;49.046;8.468;2022-12-07T04:27:02;4.40;99.60
421;DHT22;63667;49.046;8.468;2022-12-07T04:29:30;4.40;99.60
421;DHT22;63667;49.046;8.468;2022-12-07T04:31:57;4.40;99.60
421;DHT22;63667;49.046;8.468;2022-12-07T04:34:24;4.30;99.60
421;DHT22;63667;49.046;8.468;2022-12-07T04:36:52;4.40;99.60
421;DHT22;63667;49.046;8.468;2022-12-07T04:39:28;4.30;99.60
421;DHT22;63667;49.046;8.468;2022-12-07T04:42:14;4.30;99.60
421;DHT22;63667;49.046;8.468;2022-12-07T04:44:42;4.40;99.60
421;DHT22;63667;49.046;8.468;2022-12-07T04:47:09;4.40;99.60
421;DHT22;63667;49.046;8.468;2022-12-07T04:49:36;4.40;99.60
421;DHT22;63667;49.046;8.468;2022-12-07T04:52:05;4.40;99.60
421;DHT22;63667;49.046;8.468;2022-12-07T04:54:33;4.40;99.60
421;DHT22;63667;49.046;8.468;2022-12-07T04:57:02;4.40;99.60
421;DHT22;63667;49.046;8.468;2022-12-07T04:59:29;4.50;99.60
421;DHT22;63667;49.046;8.468;2022-12-07T05:01:57;4.40;99.60
421;DHT22;63667;49.046;8.468;2022-12-07T05:04:24;4.40;99.60
421;DHT22;63667;49.046;8.468;2022-12-07T05:06:50;4.40;99.60
421;DHT22;63667;49.046;8.468;2022-12-07T05:09:18;4.40;99.60
421;DHT22;63667;49.046;8.468;2022-12-07T05:11:46;4.30;99.60
421;DHT22;63667;49.046;8.468;2022-12-07T05:14:16;4.30;99.60
421;DHT22;63667;49.046;8.468;2022-12-07T05:16:45;4.60;99.60
421;DHT22;63667;49.046;8.468;2022-12-07T05:19:12;5.20;99.60
421;DHT22;63667;49.046;8.468;2022-12-07T05:21:40;5.20;99.60
421;DHT22;63667;49.046;8.468;2022-12-07T05:24:09;4.70;99.60
421;DHT22;63667;49.046;8.468;2022-12-07T05:26:37;4.60;99.60
421;DHT22;63667;49.046;8.468;2022-12-07T05:29:04;4.50;99.60
421;DHT22;63667;49.046;8.468;2022-12-07T05:31:32;4.40;99.60
421;DHT22;63667;49.046;8.468;2022-12-07T05:34:01;4.40;99.60
421;DHT22;63667;49.046;8.468;2022-12-07T05:36:27;4.40;99.60
421;DHT22;63667;49.046;8.468;2022-12-07T05:38:58;4.50;99.60
421;DHT22;63667;49.046;8.468;2022-12-07T05:41:26;4.40;99.60
421;DHT22;63667;49.046;8.468;2022-12-07T05:44:11;4.40;99.60
421;DHT22;63667;49.046;8.468;2022-12-07T05:46:38;4.40;99.60
421;DHT22;63667;49.046;8.468;2022-12-07T05:49:06;4.40;99.60
421;DHT22;63667;49.046;8.468;2022-12-07T05:51:33;4.40;99.60
421;DHT22;63667;49.046;8.468;2022-12-07T05:54:00;4.30;99.60
421;DHT22;63667;49.046;8.468;2022-12-07T05:56:28;4.40;99.60
421;DHT22;63667;49.046;8.468;2022-12-07T05:58:55;4.30;99.60
421;DHT22;63667;49.046;8.468;2022-12-07T06:01:41;4.30;99.60
421;DHT22;63667;49.046;8.468;2022-12-07T06:04:08;4.30;99.60
421;DHT22;63667;49.046;8.468;2022-12-07T06:06:36;4.30;99.60
421;DHT22;63667;49.046;8.468;2022-12-07T06:09:03;4.30;99.60
421;DHT22;63667;49.046;8.468;2022-12-07T06:11:31;4.30;99.60
421;DHT22;63667;49.046;8.468;2022-12-07T06:14:16;4.30;99.60
421;DHT22;63667;49.046;8.468;2022-12-07T06:16:47;4.30;99.60
421;DHT22;63667;49.046;8.468;2022-12-07T06:19:15;4.30;99.60
421;DHT22;63667;49.046;8.468;2022-12-07T06:21:42;4.30;99.60
421;DHT22;63667;49.046;8.468;2022-12-07T06:24:13;4.30;99.60
421;DHT22;63667;49.046;8.468;2022-12-07T06:26:40;4.40;99.60
421;DHT22;63667;49.046;8.468;2022-12-07T06:29:08;4.40;99.60
421;DHT22;63667;49.046;8.468;2022-12-07T06:31:36;4.40;99.60
421;DHT22;63667;49.046;8.468;2022-12-07T06:34:10;4.40;99.60
421;DHT22;63667;49.046;8.468;2022-12-07T06:36:41;4.40;99.60
421;DHT22;63667;49.046;8.468;2022-12-07T06:39:10;4.30;99.60
421;DHT22;63667;49.046;8.468;2022-12-07T06:41:38;4.30;99.60
421;DHT22;63667;49.046;8.468;2022-12-07T06:44:06;4.30;99.60
421;DHT22;63667;49.046;8.468;2022-12-07T06:46:39;4.30;99.60
421;DHT22;63667;49.046;8.468;2022-12-07T06:49:09;4.20;99.60
421;DHT22;63667;49.046;8.468;2022-12-07T06:51:36;4.30;99.60
421;DHT22;63667;49.046;8.468;2022-12-07T06:54:11;4.30;99.60
421;DHT22;63667;49.046;8.468;2022-12-07T06:56:40;4.30;99.60
421;DHT22;63667;49.046;8.468;2022-12-07T06:59:06;4.30;99.60
421;DHT22;63667;49.046;8.468;2022-12-07T07:01:35;4.30;99.60
421;DHT22;63667;49.046;8.468;2022-12-07T07:04:02;4.30;99.60
421;DHT22;63667;49.046;8.468;2022-12-07T07:06:30;4.30;99.60
421;DHT22;63667;49.046;8.468;2022-12-07T07:08:58;4.30;99.60
421;DHT22;63667;49.046;8.468;2022-12-07T07:11:25;4.30;99.60
421;DHT22;63667;49.046;8.468;2022-12-07T07:13:53;4.30;99.60
421;DHT22;63667;49.046;8.468;2022-12-07T07:16:24;4.30;99.60
421;DHT22;63667;49.046;8.468;2022-12-07T07:18:51;4.30;99.60
421;DHT22;63667;49.046;8.468;2022-12-07T07:21:20;4.40;99.60
421;DHT22;63667;49.046;8.468;2022-12-07T07:23:47;4.30;99.60
421;DHT22;63667;49.046;8.468;2022-12-07T07:26:14;4.30;99.60
421;DHT22;63667;49.046;8.468;2022-12-07T07:28:41;4.30;99.60
421;DHT22;63667;49.046;8.468;2022-12-07T07:31:09;4.30;99.60
421;DHT22;63667;49.046;8.468;2022-12-07T07:33:37;4.30;99.60
421;DHT22;63667;49.046;8.468;2022-12-07T07:36:05;4.30;99.60
421;DHT22;63667;49.046;8.468;2022-12-07T07:38:33;4.20;99.60
421;DHT22;63667;49.046;8.468;2022-12-07T07:41:00;4.30;99.60
421;DHT22;63667;49.046;8.468;2022-12-07T07:43:28;4.30;99.60
421;DHT22;63667;49.046;8.468;2022-12-07T07:45:55;4.30;99.60
421;DHT22;63667;49.046;8.468;2022-12-07T07:48:22;4.30;99.60
421;DHT22;63667;49.046;8.468;2022-12-07T07:50:53;4.30;99.60
421;DHT22;63667;49.046;8.468;2022-12-07T07:53:21;4.30;99.60
421;DHT22;63667;49.046;8.468;2022-12-07T07:55:52;4.30;99.60
421;DHT22;63667;49.046;8.468;2022-12-07T07:58:20;4.30;99.60
421;DHT22;63667;49.046;8.468;2022-12-07T08:00:48;4.40;99.60
421;DHT22;63667;49.046;8.468;2022-12-07T08:03:16;4.40;99.60
421;DHT22;63667;49.046;8.468;2022-12-07T08:05:43;4.40;99.60
421;DHT22;63667;49.046;8.468;2022-12-07T08:08:11;4.40;99.60
421;DHT22;63667;49.046;8.468;2022-12-07T08:10:39;4.40;99.60
421;DHT22;63667;49.046;8.468;2022-12-07T08:13:07;4.40;99.60
421;DHT22;63667;49.046;8.468;2022-12-07T08:15:39;4.40;99.60
421;DHT22;63667;49.046;8.468;2022-12-07T08:18:07;4.50;99.60
421;DHT22;63667;49.046;8.468;2022-12-07T08:20:35;4.50;99.60
421;DHT22;63667;49.046;8.468;2022-12-07T08:23:03;4.60;99.60
421;DHT22;63667;49.046;8.468;2022-12-07T08:25:31;4.60;99.60
421;DHT22;63667;49.046;8.468;2022-12-07T08:27:59;4.50;99.60
421;DHT22;63667;49.046;8.468;2022-12-07T08:30:28;4.50;99.60
421;DHT22;63667;49.046;8.468;2022-12-07T08:32:56;4.50;99.60
421;DHT22;63667;49.046;8.468;2022-12-07T08:35:23;4.50;99.60
421;DHT22;63667;49.046;8.468;2022-12-07T08:37:50;4.50;99.60
421;DHT22;63667;49.046;8.468;2022-12-07T08:40:18;4.50;99.60
421;DHT22;63667;49.046;8.468;2022-12-07T08:42:51;4.60;99.60
421;DHT22;63667;49.046;8.468;2022-12-07T08:45:19;4.70;99.60
421;DHT22;63667;49.046;8.468;2022-12-07T08:48:07;4.60;99.60
421;DHT22;63667;49.046;8.468;2022-12-07T08:50:39;4.60;99.60
421;DHT22;63667;49.046;8.468;2022-12-07T08:53:07;4.60;99.60
421;DHT22;63667;49.046;8.468;2022-12-07T08:55:35;4.70;99.60
421;DHT22;63667;49.046;8.468;2022-12-07T08:58:04;4.70;99.60
421;DHT22;63667;49.046;8.468;2022-12-07T09:00:31;4.70;99.60
421;DHT22;63667;49.046;8.468;2022-12-07T09:02:58;4.80;99.60
421;DHT22;63667;49.046;8.468;2022-12-07T09:05:26;4.80;99.60
421;DHT22;63667;49.046;8.468;2022-12-07T09:08:00;4.80;99.60
421;DHT22;63667;49.046;8.468;2022-12-07T09:10:28;4.80;99.60
421;DHT22;63667;49.046;8.468;2022-12-07T09:12:56;4.80;99.60
421;DHT22;63667;49.046;8.468;2022-12-07T09:15:28;4.90;99.60
421;DHT22;63667;49.046;8.468;2022-12-07T09:17:57;5.00;99.60
421;DHT22;63667;49.046;8.468;2022-12-07T09:20:23;5.00;99.60
421;DHT22;63667;49.046;8.468;2022-12-07T09:22:52;5.10;99.60
421;DHT22;63667;49.046;8.468;2022-12-07T09:25:19;5.20;99.60
421;DHT22;63667;49.046;8.468;2022-12-07T09:27:46;5.30;99.60
421;DHT22;63667;49.046;8.468;2022-12-07T09:30:14;5.40;99.60
421;DHT22;63667;49.046;8.468;2022-12-07T09:32:42;5.20;99.60
421;DHT22;63667;49.046;8.468;2022-12-07T09:35:09;5.30;99.60
421;DHT22;63667;49.046;8.468;2022-12-07T09:37:36;5.20;99.60
421;DHT22;63667;49.046;8.468;2022-12-07T09:40:04;5.30;99.60
421;DHT22;63667;49.046;8.468;2022-12-07T09:42:38;5.30;99.60
421;DHT22;63667;49.046;8.468;2022-12-07T09:45:16;5.30;99.60
421;DHT22;63667;49.046;8.468;2022-12-07T09:47:46;5.30;99.60
421;DHT22;63667;49.046;8.468;2022-12-07T09:50:16;5.30;99.60
421;DHT22;63667;49.046;8.468;2022-12-07T09:52:44;5.40;99.60
421;DHT22;63667;49.046;8.468;2022-12-07T09:55:14;5.40;99.60
421;DHT22;63667;49.046;8.468;2022-12-07T09:57:42;5.40;99.60
421;DHT22;63667;49.046;8.468;2022-12-07T10:00:19;5.60;99.60
421;DHT22;63667;49.046;8.468;2022-12-07T10:05:36;5.70;99.60
421;DHT22;63667;49.046;8.468;2022-12-07T10:08:04;5.90;99.60
421;DHT22;63667;49.046;8.468;2022-12-07T10:10:36;5.80;99.60
421;DHT22;63667;49.046;8.468;2022-12-07T10:13:11;5.70;99.60
421;DHT22;63667;49.046;8.468;2022-12-07T10:15:58;5.70;99.60
421;DHT22;63667;49.046;8.468;2022-12-07T10:18:42;5.60;99.60
421;DHT22;63667;49.046;8.468;2022-12-07T10:21:15;5.70;99.60
421;DHT22;63667;49.046;8.468;2022-12-07T10:29:18;5.60;99.60
421;DHT22;63667;49.046;8.468;2022-12-07T10:32:36;5.70;99.60
421;DHT22;63667;49.046;8.468;2022-12-07T10:34:39;5.50;99.60
421;DHT22;63667;49.046;8.468;2022-12-07T10:39:45;5.50;99.60
421;DHT22;63667;49.046;8.468;2022-12-07T10:42:27;5.50;99.60
421;DHT22;63667;49.046;8.468;2022-12-07T10:45:14;5.40;99.60
421;DHT22;63667;49.046;8.468;2022-12-07T10:48:09;5.50;99.60
421;DHT22;63667;49.046;8.468;2022-12-07T10:53:48;5.40;99.60
421;DHT22;63667;49.046;8.468;2022-12-07T10:57:28;5.40;99.60
421;DHT22;63667;49.046;8.468;2022-12-07T11:05:02;5.60;99.60
421;DHT22;63667;49.046;8.468;2022-12-07T11:10:44;5.50;99.60
421;DHT22;63667;49.046;8.468;2022-12-07T11:21:56;5.50;99.60
421;DHT22;63667;49.046;8.468;2022-12-07T11:24:31;5.60;99.60
421;DHT22;63667;49.046;8.468;2022-12-07T11:27:14;5.60;99.60
421;DHT22;63667;49.046;8.468;2022-12-07T11:30:01;5.50;99.60
421;DHT22;63667;49.046;8.468;2022-12-07T11:32:38;5.60;99.60
421;DHT22;63667;49.046;8.468;2022-12-07T11:35:36;5.60;99.60
421;DHT22;63667;49.046;8.468;2022-12-07T11:38:37;5.60;99.60
421;DHT22;63667;49.046;8.468;2022-12-07T11:41:09;5.60;99.60
421;DHT22;63667;49.046;8.468;2022-12-07T11:43:56;5.60;99.60
421;DHT22;63667;49.046;8.468;2022-12-07T11:46:48;5.60;99.60
421;DHT22;63667;49.046;8.468;2022-12-07T11:49:49;5.80;99.60
421;DHT22;63667;49.046;8.468;2022-12-07T11:52:43;5.80;99.60
421;DHT22;63667;49.046;8.468;2022-12-07T12:06:27;6.10;99.60
421;DHT22;63667;49.046;8.468;2022-12-07T12:16:50;5.90;99.60
421;DHT22;63667;49.046;8.468;2022-12-07T12:19:38;6.00;99.60
421;DHT22;63667;49.046;8.468;2022-12-07T12:24:37;5.90;99.60
421;DHT22;63667;49.046;8.468;2022-12-07T12:27:09;5.90;99.60
421;DHT22;63667;49.046;8.468;2022-12-07T12:29:43;6.10;99.60
421;DHT22;63667;49.046;8.468;2022-12-07T12:42:59;6.00;99.60
421;DHT22;63667;49.046;8.468;2022-12-07T12:45:31;5.80;99.60
421;DHT22;63667;49.046;8.468;2022-12-07T12:48:03;5.80;99.60
421;DHT22;63667;49.046;8.468;2022-12-07T12:50:35;5.70;99.60
421;DHT22;63667;49.046;8.468;2022-12-07T12:53:24;5.80;99.60
421;DHT22;63667;49.046;8.468;2022-12-07T12:58:30;5.80;99.60
421;DHT22;63667;49.046;8.468;2022-12-07T13:03:57;5.70;99.60
421;DHT22;63667;49.046;8.468;2022-12-07T13:08:53;5.60;99.60
421;DHT22;63667;49.046;8.468;2022-12-07T13:11:37;5.60;99.60
421;DHT22;63667;49.046;8.468;2022-12-07T13:17:04;5.70;99.60
421;DHT22;63667;49.046;8.468;2022-12-07T13:25:12;5.90;99.60
421;DHT22;63667;49.046;8.468;2022-12-07T13:28:18;5.90;99.60
421;DHT22;63667;49.046;8.468;2022-12-07T13:30:59;6.10;99.60
421;DHT22;63667;49.046;8.468;2022-12-07T13:33:28;6.70;99.60
421;DHT22;63667;49.046;8.468;2022-12-07T13:35:57;6.80;99.60
421;DHT22;63667;49.046;8.468;2022-12-07T13:38:33;6.50;99.60
421;DHT22;63667;49.046;8.468;2022-12-07T13:41:13;6.10;99.60
421;DHT22;63667;49.046;8.468;2022-12-07T13:44:08;6.00;99.60
421;DHT22;63667;49.046;8.468;2022-12-07T13:49:36;5.80;99.60
421;DHT22;63667;49.046;8.468;2022-12-07T13:52:30;5.80;99.60
421;DHT22;63667;49.046;8.468;2022-12-07T13:55:12;5.80;99.60
421;DHT22;63667;49.046;8.468;2022-12-07T13:57:41;5.70;99.60
421;DHT22;63667;49.046;8.468;2022-12-07T14:00:25;5.80;99.60
421;DHT22;63667;49.046;8.468;2022-12-07T14:02:57;5.80;99.60
421;DHT22;63667;49.046;8.468;2022-12-07T14:05:27;5.80;99.60
421;DHT22;63667;49.046;8.468;2022-12-07T14:08:03;5.80;99.60
421;DHT22;63667;49.046;8.468;2022-12-07T14:13:01;5.70;99.60
421;DHT22;63667;49.046;8.468;2022-12-07T14:15:29;5.80;99.60
421;DHT22;63667;49.046;8.468;2022-12-07T14:17:58;5.70;99.60
421;DHT22;63667;49.046;8.468;2022-12-07T14:23:05;5.80;99.60
421;DHT22;63667;49.046;8.468;2022-12-07T14:26:08;6.00;99.60
421;DHT22;63667;49.046;8.468;2022-12-07T14:28:51;5.90;99.60
421;DHT22;63667;49.046;8.468;2022-12-07T14:31:21;5.90;99.60
421;DHT22;63667;49.046;8.468;2022-12-07T14:33:49;5.90;99.60
421;DHT22;63667;49.046;8.468;2022-12-07T14:36:17;5.80;99.60
421;DHT22;63667;49.046;8.468;2022-12-07T14:38:45;5.70;99.60
421;DHT22;63667;49.046;8.468;2022-12-07T14:41:16;5.80;99.60
421;DHT22;63667;49.046;8.468;2022-12-07T14:44:07;5.80;99.60
421;DHT22;63667;49.046;8.468;2022-12-07T14:46:36;5.80;99.60
421;DHT22;63667;49.046;8.468;2022-12-07T14:49:03;5.70;99.60
421;DHT22;63667;49.046;8.468;2022-12-07T14:51:31;5.80;99.60
421;DHT22;63667;49.046;8.468;2022-12-07T14:53:59;5.70;99.60
421;DHT22;63667;49.046;8.468;2022-12-07T14:56:27;5.70;99.60
421;DHT22;63667;49.046;8.468;2022-12-07T14:58:54;5.70;99.60
421;DHT22;63667;49.046;8.468;2022-12-07T15:01:22;5.70;99.60
421;DHT22;63667;49.046;8.468;2022-12-07T15:03:49;5.70;99.60
421;DHT22;63667;49.046;8.468;2022-12-07T15:06:17;5.60;99.60
421;DHT22;63667;49.046;8.468;2022-12-07T15:08:45;5.70;99.60
421;DHT22;63667;49.046;8.468;2022-12-07T15:11:13;5.60;99.60
421;DHT22;63667;49.046;8.468;2022-12-07T15:13:41;5.60;99.60
421;DHT22;63667;49.046;8.468;2022-12-07T15:16:26;5.70;99.60
421;DHT22;63667;49.046;8.468;2022-12-07T15:18:57;5.60;99.60
421;DHT22;63667;49.046;8.468;2022-12-07T15:21:25;5.50;99.60
421;DHT22;63667;49.046;8.468;2022-12-07T15:23:53;5.50;99.60
421;DHT22;63667;49.046;8.468;2022-12-07T15:26:20;5.50;99.60
421;DHT22;63667;49.046;8.468;2022-12-07T15:28:47;5.60;99.60
421;DHT22;63667;49.046;8.468;2022-12-07T15:31:16;5.50;99.60
421;DHT22;63667;49.046;8.468;2022-12-07T15:33:43;5.30;99.60
421;DHT22;63667;49.046;8.468;2022-12-07T15:36:22;5.30;99.60
421;DHT22;63667;49.046;8.468;2022-12-07T15:38:49;5.30;99.60
421;DHT22;63667;49.046;8.468;2022-12-07T15:41:17;5.20;99.60
421;DHT22;63667;49.046;8.468;2022-12-07T15:43:44;5.20;99.60
421;DHT22;63667;49.046;8.468;2022-12-07T15:46:34;5.20;99.60
421;DHT22;63667;49.046;8.468;2022-12-07T15:49:01;5.10;99.60
421;DHT22;63667;49.046;8.468;2022-12-07T15:51:28;5.10;99.60
421;DHT22;63667;49.046;8.468;2022-12-07T15:53:58;5.10;99.60
421;DHT22;63667;49.046;8.468;2022-12-07T15:56:26;5.10;99.60
421;DHT22;63667;49.046;8.468;2022-12-07T15:58:53;5.00;99.60
421;DHT22;63667;49.046;8.468;2022-12-07T16:01:21;5.00;99.60
421;DHT22;63667;49.046;8.468;2022-12-07T16:03:49;4.90;99.60
421;DHT22;63667;49.046;8.468;2022-12-07T16:06:17;4.90;99.60
421;DHT22;63667;49.046;8.468;2022-12-07T16:08:44;4.80;99.60
421;DHT22;63667;49.046;8.468;2022-12-07T16:11:11;4.80;99.60
421;DHT22;63667;49.046;8.468;2022-12-07T16:13:38;4.80;99.60
421;DHT22;63667;49.046;8.468;2022-12-07T16:16:12;4.80;99.60
421;DHT22;63667;49.046;8.468;2022-12-07T16:18:44;4.80;99.60
421;DHT22;63667;49.046;8.468;2022-12-07T16:21:13;4.70;99.60
421;DHT22;63667;49.046;8.468;2022-12-07T16:23:41;4.70;99.60
421;DHT22;63667;49.046;8.468;2022-12-07T16:26:13;4.70;99.60
421;DHT22;63667;49.046;8.468;2022-12-07T16:28:40;4.70;99.60
421;DHT22;63667;49.046;8.468;2022-12-07T16:31:13;4.70;99.60
421;DHT22;63667;49.046;8.468;2022-12-07T16:33:42;4.70;99.60
421;DHT22;63667;49.046;8.468;2022-12-07T16:36:10;4.80;99.60
421;DHT22;63667;49.046;8.468;2022-12-07T16:38:37;4.80;99.60
421;DHT22;63667;49.046;8.468;2022-12-07T16:41:06;4.90;99.60
421;DHT22;63667;49.046;8.468;2022-12-07T16:43:33;5.00;99.60
421;DHT22;63667;49.046;8.468;2022-12-07T16:46:02;4.90;99.60
421;DHT22;63667;49.046;8.468;2022-12-07T16:48:29;5.00;99.60
421;DHT22;63667;49.046;8.468;2022-12-07T16:50:56;5.00;99.60
421;DHT22;63667;49.046;8.468;2022-12-07T16:53:24;5.00;99.60
421;DHT22;63667;49.046;8.468;2022-12-07T16:55:52;5.00;99.60
421;DHT22;63667;49.046;8.468;2022-12-07T16:58:20;5.00;99.60
421;DHT22;63667;49.046;8.468;2022-12-07T17:00:47;5.00;99.60
421;DHT22;63667;49.046;8.468;2022-12-07T17:03:15;5.00;99.60
421;DHT22;63667;49.046;8.468;2022-12-07T17:05:44;4.90;99.60
421;DHT22;63667;49.046;8.468;2022-12-07T17:08:13;4.90;99.60
421;DHT22;63667;49.046;8.468;2022-12-07T17:10:43;4.90;99.60
421;DHT22;63667;49.046;8.468;2022-12-07T17:13:11;4.90;99.60
421;DHT22;63667;49.046;8.468;2022-12-07T17:16:02;4.90;99.60
421;DHT22;63667;49.046;8.468;2022-12-07T17:18:31;4.80;99.60
421;DHT22;63667;49.046;8.468;2022-12-07T17:21:03;4.90;99.60
421;DHT22;63667;49.046;8.468;2022-12-07T17:23:30;4.90;99.60
421;DHT22;63667;49.046;8.468;2022-12-07T17:26:14;4.90;99.60
421;DHT22;63667;49.046;8.468;2022-12-07T17:28:46;4.90;99.60
421;DHT22;63667;49.046;8.468;2022-12-07T17:31:17;4.90;99.60
421;DHT22;63667;49.046;8.468;2022-12-07T17:33:44;4.90;99.60
421;DHT22;63667;49.046;8.468;2022-12-07T17:36:19;4.90;99.60
421;DHT22;63667;49.046;8.468;2022-12-07T17:38:47;4.90;99.60
421;DHT22;63667;49.046;8.468;2022-12-07T17:41:19;4.90;99.60
421;DHT22;63667;49.046;8.468;2022-12-07T17:44:09;4.90;99.60
421;DHT22;63667;49.046;8.468;2022-12-07T17:46:41;4.90;99.60
421;DHT22;63667;49.046;8.468;2022-12-07T17:49:09;4.90;99.60
421;DHT22;63667;49.046;8.468;2022-12-07T17:51:35;4.90;99.60
421;DHT22;63667;49.046;8.468;2022-12-07T17:54:20;4.90;99.60
421;DHT22;63667;49.046;8.468;2022-12-07T17:56:48;4.90;99.60
421;DHT22;63667;49.046;8.468;2022-12-07T17:59:16;4.80;99.60
421;DHT22;63667;49.046;8.468;2022-12-07T18:01:44;4.90;99.60
421;DHT22;63667;49.046;8.468;2022-12-07T18:04:11;4.80;99.60
421;DHT22;63667;49.046;8.468;2022-12-07T18:06:39;4.80;99.60
421;DHT22;63667;49.046;8.468;2022-12-07T18:09:07;4.90;99.60
421;DHT22;63667;49.046;8.468;2022-12-07T18:11:34;4.80;99.60
421;DHT22;63667;49.046;8.468;2022-12-07T18:14:03;4.80;99.60
421;DHT22;63667;49.046;8.468;2022-12-07T18:16:32;4.80;99.60
421;DHT22;63667;49.046;8.468;2022-12-07T18:19:04;4.80;99.60
421;DHT22;63667;49.046;8.468;2022-12-07T18:21:32;4.70;99.60
421;DHT22;63667;49.046;8.468;2022-12-07T18:24:01;4.70;99.60
421;DHT22;63667;49.046;8.468;2022-12-07T18:26:30;4.70;99.60
421;DHT22;63667;49.046;8.468;2022-12-07T18:29:01;4.70;99.60
421;DHT22;63667;49.046;8.468;2022-12-07T18:31:28;4.60;99.60
421;DHT22;63667;49.046;8.468;2022-12-07T18:33:55;4.60;99.60